createdAt,value
2022-08-26T00:01:42.186Z,64.37
2022-08-26T00:04:12.625Z,62.98
2022-08-26T00:06:42.674Z,63.96
2022-08-26T00:09:15.919Z,66.93
2022-08-26T00:11:43.307Z,62.14
2022-08-26T00:14:09.900Z,62.00
2022-08-26T00:16:37.010Z,63.77
2022-08-26T00:19:07.867Z,65.45
2022-08-26T00:21:35.163Z,64.72
2022-08-26T00:24:04.511Z,64.68
2022-08-26T00:26:33.581Z,67.33
2022-08-26T00:29:00.145Z,65.77
2022-08-26T00:31:27.077Z,67.40
2022-08-26T00:33:53.781Z,69.50
2022-08-26T00:36:20.641Z,66.93
2022-08-26T00:38:48.061Z,65.62
2022-08-26T00:41:15.130Z,68.61
2022-08-26T00:43:47.324Z,68.76
2022-08-26T00:46:23.909Z,72.03
2022-08-26T00:48:53.803Z,70.27
2022-08-26T00:51:24.954Z,70.11
2022-08-26T00:54:03.977Z,71.19
2022-08-26T00:56:36.709Z,72.30
2022-08-26T00:59:06.857Z,69.83
2022-08-26T01:01:33.810Z,69.24
2022-08-26T01:04:01.051Z,73.89
2022-08-26T01:06:28.512Z,70.54
2022-08-26T01:08:56.090Z,73.55
2022-08-26T01:11:24.660Z,73.15
2022-08-26T01:13:54.715Z,74.30
2022-08-26T01:16:22.407Z,74.42
2022-08-26T01:18:49.104Z,72.46
2022-08-26T01:21:41.282Z,74.53
2022-08-26T01:24:10.240Z,73.24
2022-08-26T01:26:42.952Z,71.21
2022-08-26T01:29:13.024Z,75.45
2022-08-26T01:31:47.537Z,75.70
2022-08-26T01:34:30.436Z,74.54
2022-08-26T01:37:15.550Z,74.20
2022-08-26T01:39:43.374Z,74.63
2022-08-26T01:42:14.645Z,74.26
2022-08-26T01:45:07.233Z,76.92
2022-08-26T01:47:36.620Z,75.95
2022-08-26T01:50:13.132Z,75.83
2022-08-26T01:52:51.643Z,76.24
2022-08-26T01:55:32.422Z,73.88
2022-08-26T01:58:04.744Z,75.45
2022-08-26T02:00:32.768Z,75.30
2022-08-26T02:03:17.714Z,73.64
2022-08-26T02:05:53.657Z,78.43
2022-08-26T02:08:31.036Z,76.06
2022-08-26T02:10:57.615Z,77.46
2022-08-26T02:13:30.077Z,78.19
2022-08-26T02:15:58.489Z,77.54
2022-08-26T02:18:26.439Z,77.39
2022-08-26T02:20:55.928Z,75.43
2022-08-26T02:23:24.021Z,76.23
2022-08-26T02:25:58.863Z,79.70
2022-08-26T02:28:29.296Z,76.06
2022-08-26T02:30:55.829Z,79.27
2022-08-26T02:33:22.558Z,80.09
2022-08-26T02:35:49.082Z,77.73
2022-08-26T02:38:15.602Z,78.94
2022-08-26T02:40:43.892Z,79.41
2022-08-26T02:43:12.549Z,81.20
2022-08-26T02:45:40.254Z,78.68
2022-08-26T02:48:18.969Z,80.45
2022-08-26T02:50:46.167Z,76.18
2022-08-26T02:53:13.326Z,80.06
2022-08-26T02:55:40.953Z,79.58
2022-08-26T02:58:09.813Z,79.84
2022-08-26T03:00:38.369Z,79.83
2022-08-26T03:03:05.768Z,80.29
2022-08-26T03:05:32.613Z,80.09
2022-08-26T03:08:00.849Z,79.85
2022-08-26T03:10:28.073Z,80.53
2022-08-26T03:12:54.641Z,76.73
2022-08-26T03:15:24.384Z,77.19
2022-08-26T03:17:50.932Z,78.66
2022-08-26T03:20:18.686Z,78.32
2022-08-26T03:22:45.964Z,77.87
2022-08-26T03:25:15.304Z,77.17
2022-08-26T03:27:43.000Z,80.47
2022-08-26T03:30:29.252Z,78.72
2022-08-26T03:32:55.785Z,79.97
2022-08-26T03:35:22.511Z,78.60
2022-08-26T03:37:49.133Z,78.37
2022-08-26T03:40:16.376Z,78.63
2022-08-26T03:42:47.746Z,76.95
2022-08-26T03:45:15.985Z,79.49
2022-08-26T03:47:43.060Z,77.99
2022-08-26T03:50:11.712Z,78.50
2022-08-26T03:52:43.543Z,77.71
2022-08-26T03:55:11.376Z,76.57
2022-08-26T03:57:37.939Z,78.23
2022-08-26T04:00:08.226Z,77.35
2022-08-26T04:02:34.779Z,77.88
2022-08-26T04:05:02.582Z,76.48
2022-08-26T04:07:31.994Z,79.72
2022-08-26T04:09:59.719Z,78.91
2022-08-26T04:12:26.348Z,79.15
2022-08-26T04:14:53.825Z,79.36
2022-08-26T04:17:25.003Z,78.37
2022-08-26T04:19:54.097Z,79.26
2022-08-26T04:22:24.022Z,78.79
2022-08-26T04:24:51.816Z,77.61
2022-08-26T04:27:18.522Z,78.11
2022-08-26T04:29:46.508Z,76.52
2022-08-26T04:32:14.963Z,77.39
2022-08-26T04:34:43.166Z,80.09
2022-08-26T04:37:12.096Z,78.41
2022-08-26T04:39:38.665Z,79.24
2022-08-26T04:42:05.964Z,78.29
2022-08-26T04:44:36.002Z,77.26
2022-08-26T04:47:03.034Z,79.04
2022-08-26T04:49:35.490Z,77.09
2022-08-26T04:52:02.796Z,77.36
2022-08-26T04:54:29.369Z,78.85
2022-08-26T04:56:55.981Z,78.97
2022-08-26T04:59:22.929Z,76.95
2022-08-26T05:01:53.193Z,77.93
2022-08-26T05:04:20.951Z,77.44
2022-08-26T05:06:48.920Z,77.04
2022-08-26T05:09:15.923Z,76.39
2022-08-26T05:11:42.642Z,77.52
2022-08-26T05:14:09.742Z,76.54
2022-08-26T05:16:36.417Z,78.32
2022-08-26T05:19:04.280Z,76.64
2022-08-26T05:21:31.207Z,79.14
2022-08-26T05:23:57.845Z,78.79
2022-08-26T05:26:28.348Z,76.37
2022-08-26T05:28:56.217Z,76.53
2022-08-26T05:31:26.618Z,76.57
2022-08-26T05:33:54.072Z,76.06
2022-08-26T05:36:22.944Z,77.88
2022-08-26T05:38:49.906Z,78.93
2022-08-26T05:41:34.145Z,78.84
2022-08-26T05:44:05.422Z,78.11
2022-08-26T05:46:32.007Z,76.92
2022-08-26T05:48:59.585Z,76.44
2022-08-26T05:51:26.834Z,76.55
2022-08-26T05:53:59.818Z,78.35
2022-08-26T05:56:27.943Z,77.97
2022-08-26T05:58:56.160Z,78.50
2022-08-26T06:01:27.564Z,78.74
2022-08-26T06:03:59.665Z,77.26
2022-08-26T06:06:30.824Z,77.30
2022-08-26T06:08:59.591Z,77.63
2022-08-26T06:11:27.957Z,78.12
2022-08-26T06:14:03.121Z,76.38
2022-08-26T06:16:32.410Z,78.46
2022-08-26T06:19:02.820Z,78.06
2022-08-26T06:21:34.713Z,77.66
2022-08-26T06:24:27.341Z,77.06
2022-08-26T06:27:01.471Z,77.13
2022-08-26T06:29:30.087Z,76.43
2022-08-26T06:31:58.042Z,77.45
2022-08-26T06:34:26.637Z,76.10
2022-08-26T06:36:59.624Z,75.33
2022-08-26T06:39:26.321Z,75.91
2022-08-26T06:41:53.023Z,76.59
2022-08-26T06:44:20.936Z,75.98
2022-08-26T06:46:50.725Z,75.46
2022-08-26T06:49:18.476Z,76.88
2022-08-26T06:51:58.246Z,76.35
2022-08-26T06:54:25.420Z,76.94
2022-08-26T06:56:52.326Z,75.42
2022-08-26T06:59:18.822Z,75.35
2022-08-26T07:01:45.532Z,75.54
2022-08-26T07:04:21.816Z,75.25
2022-08-26T07:06:52.919Z,74.43
2022-08-26T07:09:22.027Z,74.88
2022-08-26T07:11:49.216Z,75.63
2022-08-26T07:14:16.830Z,76.24
2022-08-26T07:16:47.399Z,75.83
2022-08-26T07:19:17.360Z,75.51
2022-08-26T07:21:54.171Z,74.98
2022-08-26T07:24:22.169Z,74.90
2022-08-26T07:26:49.838Z,76.25
2022-08-26T07:29:18.599Z,76.60
2022-08-26T07:31:45.927Z,75.21
2022-08-26T07:34:13.980Z,75.37
2022-08-26T07:36:40.596Z,76.57
2022-08-26T07:39:07.824Z,75.51
2022-08-26T07:41:34.521Z,75.43
2022-08-26T07:44:01.177Z,75.19
2022-08-26T07:46:30.447Z,75.82
2022-08-26T07:48:58.240Z,75.36
2022-08-26T07:51:25.614Z,76.12
2022-08-26T07:53:53.320Z,75.14
2022-08-26T07:56:22.552Z,75.20
2022-08-26T07:58:51.418Z,75.34
2022-08-26T08:01:18.539Z,75.14
2022-08-26T08:03:45.392Z,75.95
2022-08-26T08:06:11.929Z,75.35
2022-08-26T08:08:40.748Z,75.29
2022-08-26T08:11:07.506Z,75.73
2022-08-26T08:13:37.442Z,76.39
2022-08-26T08:16:05.066Z,76.31
2022-08-26T08:18:31.837Z,75.24
2022-08-26T08:21:20.922Z,75.50
2022-08-26T08:23:47.085Z,75.63
2022-08-26T08:26:14.138Z,75.50
2022-08-26T08:28:40.977Z,75.60
2022-08-26T08:31:08.257Z,76.28
2022-08-26T08:33:35.429Z,75.22
2022-08-26T08:36:02.169Z,76.29
2022-08-26T08:38:29.564Z,74.69
2022-08-26T08:40:56.083Z,74.85
2022-08-26T08:43:44.868Z,75.52
2022-08-26T08:46:15.187Z,74.81
2022-08-26T08:48:48.189Z,75.14
2022-08-26T08:51:30.177Z,74.45
2022-08-26T08:53:58.688Z,74.82
2022-08-26T08:56:43.965Z,74.40
2022-08-26T08:59:24.104Z,74.41
2022-08-26T09:01:59.799Z,74.08
2022-08-26T09:04:45.386Z,74.01
2022-08-26T09:07:26.520Z,73.68
2022-08-26T09:10:00.965Z,72.97
2022-08-26T09:12:33.210Z,72.77
2022-08-26T09:15:20.382Z,72.61
2022-08-26T09:18:00.891Z,72.07
2022-08-26T09:20:40.591Z,71.68
2022-08-26T09:23:10.375Z,71.53
2022-08-26T09:28:29.030Z,71.04
2022-08-26T09:31:23.692Z,71.00
2022-08-26T09:34:06.200Z,70.82
2022-08-26T09:36:41.334Z,71.52
2022-08-26T09:39:29.693Z,71.07
2022-08-26T09:42:22.784Z,71.42
2022-08-26T09:44:59.623Z,71.05
2022-08-26T09:47:38.133Z,70.67
2022-08-26T09:50:23.662Z,70.32
2022-08-26T09:53:28.728Z,70.38
2022-08-26T09:56:25.425Z,70.39
2022-08-26T09:58:55.550Z,70.68
2022-08-26T10:01:35.309Z,70.43
2022-08-26T10:04:09.792Z,70.21
2022-08-26T10:06:43.740Z,70.27
2022-08-26T10:09:17.996Z,69.90
2022-08-26T10:11:56.059Z,69.89
2022-08-26T10:14:28.764Z,69.87
2022-08-26T10:17:08.981Z,69.59
2022-08-26T10:19:55.647Z,69.46
2022-08-26T10:22:37.267Z,69.08
2022-08-26T10:25:08.939Z,68.95
2022-08-26T10:28:03.394Z,69.18
2022-08-26T10:30:39.066Z,69.18
2022-08-26T10:33:14.528Z,69.33
2022-08-26T10:35:53.616Z,69.51
2022-08-26T10:38:29.339Z,69.38
2022-08-26T10:40:59.097Z,70.00
2022-08-26T10:43:52.575Z,70.15
2022-08-26T10:46:27.375Z,70.10
2022-08-26T10:49:06.573Z,70.94
2022-08-26T10:51:38.598Z,70.71
2022-08-26T10:54:15.165Z,70.94
2022-08-26T10:56:53.779Z,70.59
2022-08-26T10:59:45.629Z,70.65
2022-08-26T11:02:48.299Z,70.79
2022-08-26T11:05:19.669Z,70.72
2022-08-26T11:07:48.489Z,70.31
2022-08-26T11:10:22.572Z,70.67
2022-08-26T11:12:50.911Z,70.30
2022-08-26T11:15:24.499Z,70.61
2022-08-26T11:17:51.508Z,70.13
2022-08-26T11:20:31.134Z,70.47
2022-08-26T11:23:23.334Z,70.28
2022-08-26T11:25:56.360Z,69.99
2022-08-26T11:28:36.213Z,70.15
2022-08-26T11:31:05.861Z,69.77
2022-08-26T11:34:11.546Z,69.74
2022-08-26T11:36:46.202Z,70.01
2022-08-26T11:39:53.870Z,70.21
2022-08-26T11:42:41.595Z,70.45
2022-08-26T11:45:34.362Z,70.44
2022-08-26T11:48:21.195Z,70.49
2022-08-26T11:50:53.912Z,71.02
2022-08-26T11:53:21.053Z,71.05
2022-08-26T11:55:52.051Z,70.52
2022-08-26T11:58:22.380Z,70.56
2022-08-26T12:01:15.288Z,70.91
2022-08-26T12:03:50.121Z,70.85
2022-08-26T12:06:45.065Z,70.86
2022-08-26T12:09:21.088Z,70.32
2022-08-26T12:11:47.919Z,70.32
2022-08-26T12:14:21.441Z,70.51
2022-08-26T12:16:48.537Z,70.92
2022-08-26T12:19:27.595Z,70.65
2022-08-26T12:22:01.195Z,70.42
2022-08-26T12:24:28.447Z,70.52
2022-08-26T12:27:29.512Z,70.30
2022-08-26T12:30:14.964Z,70.29
2022-08-26T12:32:57.302Z,70.11
2022-08-26T12:35:25.585Z,70.35
2022-08-26T12:37:54.177Z,69.33
2022-08-26T12:40:35.533Z,69.42
2022-08-26T12:43:05.627Z,69.24
2022-08-26T12:45:34.237Z,69.43
2022-08-26T12:48:03.208Z,69.28
2022-08-26T12:50:34.262Z,69.23
2022-08-26T12:53:04.648Z,69.52
2022-08-26T12:55:36.240Z,69.59
2022-08-26T12:58:31.787Z,69.58
2022-08-26T13:01:24.921Z,69.41
2022-08-26T13:03:51.998Z,69.44
2022-08-26T13:06:26.293Z,69.46
2022-08-26T13:09:10.063Z,69.58
2022-08-26T13:11:39.581Z,69.45
2022-08-26T13:14:23.998Z,69.46
2022-08-26T13:16:52.100Z,69.71
2022-08-26T13:19:25.442Z,69.55
2022-08-26T13:21:54.784Z,69.60
2022-08-26T13:24:57.840Z,69.65
2022-08-26T13:27:27.213Z,69.72
2022-08-26T13:29:55.049Z,70.29
2022-08-26T13:32:27.530Z,70.20
2022-08-26T13:34:56.410Z,70.16
2022-08-26T13:37:34.452Z,70.17
2022-08-26T13:40:01.829Z,70.41
2022-08-26T13:42:29.414Z,69.79
2022-08-26T13:44:58.184Z,69.76
2022-08-26T13:47:26.102Z,69.80
2022-08-26T13:49:55.180Z,69.95
2022-08-26T13:52:30.393Z,70.10
2022-08-26T13:55:07.984Z,69.68
2022-08-26T13:57:34.944Z,70.36
2022-08-26T14:00:02.099Z,69.98
2022-08-26T14:02:31.357Z,69.37
2022-08-26T14:04:58.156Z,68.86
2022-08-26T14:07:26.299Z,69.09
2022-08-26T14:09:55.829Z,68.51
2022-08-26T14:12:22.523Z,67.99
2022-08-26T14:14:49.002Z,67.21
2022-08-26T14:17:24.476Z,66.96
2022-08-26T14:19:51.885Z,67.23
2022-08-26T14:22:22.364Z,67.42
2022-08-26T14:24:51.846Z,67.09
2022-08-26T14:27:18.471Z,66.47
2022-08-26T14:29:45.088Z,66.47
2022-08-26T14:32:22.901Z,65.95
2022-08-26T14:34:53.058Z,65.70
2022-08-26T14:37:21.258Z,65.49
2022-08-26T14:39:51.180Z,65.05
2022-08-26T14:42:26.447Z,65.09
2022-08-26T14:45:01.928Z,65.27
2022-08-26T14:47:29.749Z,65.17
2022-08-26T14:49:56.417Z,64.92
2022-08-26T14:52:23.341Z,65.33
2022-08-26T14:54:54.870Z,64.84
2022-08-26T14:57:27.200Z,64.76
2022-08-26T14:59:53.709Z,65.24
2022-08-26T15:02:32.832Z,65.62
2022-08-26T15:05:02.698Z,65.00
2022-08-26T15:07:29.812Z,65.21
2022-08-26T15:09:56.401Z,65.64
2022-08-26T15:12:22.996Z,65.55
2022-08-26T15:14:49.529Z,65.71
2022-08-26T15:17:19.313Z,65.48
2022-08-26T15:19:48.784Z,65.31
2022-08-26T15:22:15.322Z,65.91
2022-08-26T15:24:43.719Z,65.73
2022-08-26T15:27:10.353Z,65.59
2022-08-26T15:29:37.517Z,65.90
2022-08-26T15:32:05.389Z,66.37
2022-08-26T15:34:32.414Z,66.38
2022-08-26T15:36:59.607Z,66.33
2022-08-26T15:39:26.163Z,66.39
2022-08-26T15:41:53.079Z,66.54
2022-08-26T15:44:20.053Z,66.57
2022-08-26T15:46:48.313Z,66.39
2022-08-26T15:49:17.823Z,66.71
2022-08-26T15:51:46.981Z,66.46
2022-08-26T15:54:16.566Z,66.70
2022-08-26T15:56:44.324Z,67.71
2022-08-26T15:59:14.244Z,69.84
2022-08-26T16:01:42.898Z,69.92
2022-08-26T16:04:09.854Z,71.22
2022-08-26T16:06:41.256Z,70.63
2022-08-26T16:09:08.319Z,71.25
2022-08-26T16:11:37.160Z,71.72
2022-08-26T16:14:04.681Z,71.42
2022-08-26T16:16:40.129Z,71.25
2022-08-26T16:19:08.377Z,71.69
2022-08-26T16:21:38.905Z,71.25
2022-08-26T16:24:08.911Z,71.83
2022-08-26T16:26:36.785Z,72.69
2022-08-26T16:29:07.629Z,72.36
2022-08-26T16:31:34.808Z,72.32
2022-08-26T16:34:01.646Z,71.03
2022-08-26T16:36:30.265Z,71.34
2022-08-26T16:38:56.833Z,71.80
2022-08-26T16:41:31.278Z,72.06
2022-08-26T16:44:01.628Z,72.33
2022-08-26T16:46:32.024Z,71.35
2022-08-26T16:48:58.791Z,71.30
2022-08-26T16:51:28.584Z,71.14
2022-08-26T16:53:56.878Z,71.28
2022-08-26T16:56:34.144Z,71.05
2022-08-26T16:59:01.978Z,70.75
2022-08-26T17:01:29.566Z,72.07
2022-08-26T17:03:56.128Z,71.17
2022-08-26T17:06:22.868Z,71.36
2022-08-26T17:08:49.647Z,70.79
2022-08-26T17:11:16.312Z,70.97
2022-08-26T17:13:42.877Z,71.25
2022-08-26T17:16:14.346Z,70.78
2022-08-26T17:18:41.159Z,70.71
2022-08-26T17:21:10.588Z,70.34
2022-08-26T17:23:38.518Z,70.47
2022-08-26T17:26:05.338Z,70.53
2022-08-26T17:28:32.259Z,70.05
2022-08-26T17:30:59.839Z,70.23
2022-08-26T17:33:27.650Z,69.92
2022-08-26T17:35:55.371Z,70.01
2022-08-26T17:38:22.885Z,69.81
2022-08-26T17:40:50.256Z,69.48
2022-08-26T17:43:17.803Z,69.55
2022-08-26T17:45:44.443Z,69.63
2022-08-26T17:48:11.586Z,69.75
2022-08-26T17:50:39.937Z,69.97
2022-08-26T17:53:06.641Z,70.02
2022-08-26T17:55:33.481Z,70.17
2022-08-26T17:58:00.103Z,71.07
2022-08-26T18:00:30.585Z,70.46
2022-08-26T18:02:57.175Z,70.35
2022-08-26T18:05:23.958Z,70.02
2022-08-26T18:07:51.445Z,70.44
2022-08-26T18:10:20.091Z,70.60
2022-08-26T18:12:47.024Z,71.25
2022-08-26T18:15:15.232Z,71.30
2022-08-26T18:17:42.325Z,70.69
2022-08-26T18:20:13.135Z,71.22
2022-08-26T18:22:40.487Z,71.35
2022-08-26T18:25:08.411Z,71.37
2022-08-26T18:27:36.346Z,71.44
2022-08-26T18:30:07.183Z,71.43
2022-08-26T18:32:35.006Z,72.79
2022-08-26T18:35:01.829Z,71.76
2022-08-26T18:37:31.467Z,71.58
2022-08-26T18:39:59.586Z,71.68
2022-08-26T18:42:27.023Z,72.33
2022-08-26T18:44:53.890Z,73.08
2022-08-26T18:47:20.760Z,72.91
2022-08-26T18:49:48.548Z,72.84
2022-08-26T18:52:15.485Z,73.13
2022-08-26T18:54:42.046Z,73.68
2022-08-26T18:57:08.626Z,74.05
2022-08-26T18:59:35.209Z,74.83
2022-08-26T19:02:01.835Z,74.58
2022-08-26T19:04:28.502Z,75.43
2022-08-26T19:06:55.988Z,74.63
2022-08-26T19:09:22.618Z,75.01
2022-08-26T19:11:50.038Z,75.49
2022-08-26T19:14:17.098Z,75.69
2022-08-26T19:16:46.538Z,75.82
2022-08-26T19:19:14.752Z,75.79
2022-08-26T19:21:41.407Z,75.55
2022-08-26T19:24:15.646Z,76.27
2022-08-26T19:26:44.157Z,77.51
2022-08-26T19:29:11.787Z,75.74
2022-08-26T19:31:38.446Z,76.97
2022-08-26T19:34:05.406Z,76.34
2022-08-26T19:36:32.796Z,76.10
2022-08-26T19:39:00.235Z,76.33
2022-08-26T19:41:37.023Z,76.21
2022-08-26T19:44:08.577Z,77.07
2022-08-26T19:46:36.397Z,75.87
2022-08-26T19:49:03.690Z,76.02
2022-08-26T19:51:33.605Z,76.42
2022-08-26T19:54:01.767Z,77.19
2022-08-26T19:56:29.054Z,77.45
2022-08-26T19:58:56.603Z,77.38
2022-08-26T20:01:23.404Z,76.28
2022-08-26T20:03:50.466Z,75.92
2022-08-26T20:06:17.835Z,75.33
2022-08-26T20:08:45.067Z,75.80
2022-08-26T20:11:16.221Z,76.01
2022-08-26T20:13:44.252Z,76.33
2022-08-26T20:16:12.167Z,75.77
2022-08-26T20:19:00.679Z,75.90
2022-08-26T20:21:29.411Z,77.69
2022-08-26T20:23:58.480Z,77.72
2022-08-26T20:26:31.149Z,76.24
2022-08-26T20:28:58.409Z,76.52
2022-08-26T20:31:26.442Z,75.93
2022-08-26T20:33:53.928Z,76.25
2022-08-26T20:36:22.629Z,75.89
2022-08-26T20:38:50.201Z,76.52
2022-08-26T20:41:17.957Z,75.92
2022-08-26T20:43:46.191Z,75.92
2022-08-26T20:46:17.905Z,76.07
2022-08-26T20:48:45.549Z,75.41
2022-08-26T20:51:12.401Z,75.67
2022-08-26T20:53:39.008Z,74.81
2022-08-26T20:56:08.193Z,74.83
2022-08-26T20:58:35.188Z,74.94
2022-08-26T21:01:07.248Z,74.38
2022-08-26T21:03:35.174Z,74.49
2022-08-26T21:06:03.650Z,74.15
2022-08-26T21:08:30.557Z,73.94
2022-08-26T21:11:00.053Z,73.85
2022-08-26T21:13:26.614Z,73.49
2022-08-26T21:15:56.427Z,73.40
2022-08-26T21:18:23.127Z,73.74
2022-08-26T21:20:50.254Z,73.36
2022-08-26T21:23:17.941Z,73.52
2022-08-26T21:25:45.539Z,73.80
2022-08-26T21:28:12.127Z,73.83
2022-08-26T21:30:40.550Z,73.85
2022-08-26T21:33:07.794Z,73.91
2022-08-26T21:35:34.699Z,74.02
2022-08-26T21:38:01.393Z,73.85
2022-08-26T21:40:28.170Z,73.54
2022-08-26T21:42:54.813Z,73.69
2022-08-26T21:45:21.630Z,73.86
2022-08-26T21:47:48.322Z,74.15
2022-08-26T21:50:14.881Z,73.90
2022-08-26T21:52:41.441Z,73.91
2022-08-26T21:55:08.768Z,73.67
2022-08-26T21:57:36.406Z,74.11
2022-08-26T22:00:05.403Z,73.82
2022-08-26T22:02:32.732Z,74.39
2022-08-26T22:04:59.420Z,73.94
2022-08-26T22:07:25.958Z,74.20
2022-08-26T22:09:52.506Z,74.25
2022-08-26T22:12:19.089Z,74.03
2022-08-26T22:14:45.725Z,74.28
2022-08-26T22:17:12.645Z,73.91
2022-08-26T22:19:46.111Z,73.85
2022-08-26T22:22:13.901Z,74.18
2022-08-26T22:24:40.414Z,74.16
2022-08-26T22:27:07.184Z,74.10
2022-08-26T22:29:34.272Z,74.34
2022-08-26T22:32:01.173Z,74.19
2022-08-26T22:34:28.141Z,74.29
2022-08-26T22:36:54.924Z,74.81
2022-08-26T22:39:24.068Z,74.18
2022-08-26T22:41:52.011Z,74.49
2022-08-26T22:44:20.429Z,74.51
2022-08-26T22:46:48.072Z,74.51
2022-08-26T22:49:18.289Z,74.84
2022-08-26T22:51:46.152Z,74.48
2022-08-26T22:54:13.753Z,74.42
2022-08-26T22:56:40.372Z,74.99
2022-08-26T22:59:08.716Z,75.25
2022-08-26T23:01:37.719Z,74.47
2022-08-26T23:04:06.251Z,74.53
2022-08-26T23:06:36.083Z,74.30
2022-08-26T23:09:02.656Z,74.76
2022-08-26T23:11:29.197Z,74.62
2022-08-26T23:13:55.971Z,74.95
2022-08-26T23:16:22.577Z,74.45
2022-08-26T23:18:50.346Z,74.96
2022-08-26T23:21:16.897Z,75.16
2022-08-26T23:23:45.002Z,74.90
2022-08-26T23:26:15.484Z,75.41
2022-08-26T23:28:44.111Z,75.10
2022-08-26T23:31:10.684Z,75.26
2022-08-26T23:33:55.764Z,75.45
2022-08-26T23:36:23.946Z,75.58
2022-08-26T23:38:52.820Z,75.84
2022-08-26T23:41:20.153Z,75.95
2022-08-26T23:43:46.723Z,75.46
2022-08-26T23:46:13.425Z,75.60
2022-08-26T23:48:40.023Z,75.44
2022-08-26T23:51:25.008Z,75.94
2022-08-26T23:53:51.581Z,76.01
2022-08-26T23:56:18.722Z,76.59
2022-08-26T23:58:47.086Z,76.02
